LIEO Airport Information

Runway Information
Runway 05 Length 9006 ft width 148 ft
Elevation 35 ft Threshold 805 ft Heading 53
Runway 23 Length 9006 ft Width 148 ft
Elevation 19 ft Threshold 495 ft Heading 233
Airport Frequencies
Type APP Name OLBIA RADA Frequency 125.95 MHZ
Type ATIS Name ATIS Frequency 113.9 MHZ
Type TWR Name OLBIA TWR Frequency 118.975 MHZ
Airport Navaids
Type VOR-DME Name Olbia Costa Smeralda Frequency 113900 KHZ
Type NDB Name Olbia Costa Smeralda Frequency 357 KHZ
Airport Weather Information & NOTAM
ADDS - METARS form results

(0609 UTC 22 November 2022)
Data provider http://aviationweather.gov/metar/data/
 
METAR text: LIEO 220550Z AUTO 26018KT 9999 -RA BKN031/// 13/10 Q0994
Conditions at: LIEO (OLBIA/COSTA SMER, IT) observed 0550 UTC 22 November 2022
Temperature: 13.0°C (55°F)
Dewpoint: 10.0°C (50°F) [RH = 82%]
Pressure (altimeter): 29.35 inches Hg (994.0 mb)
Winds: from the W (260 degrees) at 21 MPH (18 knots; 9.3 m/s)
Visibility: 6 or more miles (10+ km)
Ceiling: 3100 feet AGL
Clouds: broken clouds at 3100 feet AGL
Weather: -RA  (light rain)

METAR text: LIEO 220520Z AUTO 26017G27KT 220V280 9999 -RA BKN029/// 13/11 Q0993
Conditions at: LIEO (OLBIA/COSTA SMER, IT) observed 0520 UTC 22 November 2022
Temperature: 13.0°C (55°F)
Dewpoint: 11.0°C (52°F) [RH = 88%]
Pressure (altimeter): 29.32 inches Hg (993.0 mb)
Winds: from the W (260 degrees) at 20 MPH (17 knots; 8.7 m/s)
gusting to 31 MPH (27 knots; 13.9 m/s)
Visibility: 6 or more miles (10+ km)
Ceiling: 2900 feet AGL
Clouds: broken clouds at 2900 feet AGL
Weather: -RA  (light rain)

Forecast for: LIEO (OLBIA/COSTA SMER, IT)
Text: TAF LIEO 220500Z 2206/2306 28025G40KT 9999 SCT030 BKN050
Forecast period: 0600 to 1500 UTC 22 November 2022
Forecast type: FROM: standard forecast or significant change
Winds: from the W (280 degrees) at 29 MPH (25 knots; 12.9 m/s)
gusting to 46 MPH (40 knots; 20.6 m/s)
Visibility: 6 or more miles (10+ km)
Ceiling: 5000 feet AGL
Clouds: scattered clouds at 3000 feet AGL
broken clouds at 5000 feet AGL
Weather: no significant weather forecast for this period
Text: BECMG 2215/2217 28015G28KT
Forecast period: 1500 UTC 22 November 2022 to 0600 UTC 23 November 2022
Forecast type: BECOMING: Conditions expected to become as follows by 1700 UTC 22 November 2022
Winds: from the W (280 degrees) at 17 MPH (15 knots; 7.7 m/s)
gusting to 32 MPH (28 knots; 14.4 m/s)
Visibility: 6 or more miles (10+ km)
Ceiling: 5000 feet AGL
Clouds: scattered clouds at 3000 feet AGL
broken clouds at 5000 feet AGL
Weather: no significant weather forecast for this period